createdAt,value
2018-03-03T00:00:58.502Z,45.93
2018-03-03T00:03:25.980Z,41.17
2018-03-03T00:05:53.770Z,42.27
2018-03-03T00:08:21.521Z,46.03
2018-03-03T00:10:48.973Z,42.67
2018-03-03T00:13:16.469Z,43.07
2018-03-03T00:15:43.937Z,41.07
2018-03-03T00:18:11.441Z,41.03
2018-03-03T00:20:39.049Z,40.67
2018-03-03T00:23:06.532Z,42.67
2018-03-03T00:25:33.997Z,43.67
2018-03-03T00:28:01.466Z,43.80
2018-03-03T00:30:28.918Z,44.33
2018-03-03T00:32:56.425Z,43.87
2018-03-03T00:35:23.880Z,42.60
2018-03-03T00:37:51.326Z,44.40
2018-03-03T00:40:18.805Z,45.13
2018-03-03T00:42:46.257Z,47.63
2018-03-03T00:45:13.883Z,46.37
2018-03-03T00:47:41.328Z,42.90
2018-03-03T00:50:08.810Z,45.03
2018-03-03T00:52:36.802Z,43.67
2018-03-03T00:55:04.321Z,44.87
2018-03-03T00:57:31.843Z,44.67
2018-03-03T00:59:59.293Z,44.23
2018-03-03T01:02:26.744Z,44.90
2018-03-03T01:04:54.293Z,44.30
2018-03-03T01:07:21.752Z,45.10
2018-03-03T01:09:49.257Z,42.40
2018-03-03T01:12:16.748Z,43.30
2018-03-03T01:14:44.193Z,41.37
2018-03-03T01:17:11.701Z,45.90
2018-03-03T01:19:39.152Z,44.60
2018-03-03T01:22:07.117Z,47.27
2018-03-03T01:24:34.570Z,47.13
2018-03-03T01:27:02.018Z,45.27
2018-03-03T01:29:29.497Z,46.13
2018-03-03T01:31:56.958Z,48.17
2018-03-03T01:34:24.467Z,46.90
2018-03-03T01:36:51.917Z,46.07
2018-03-03T01:39:19.791Z,46.87
2018-03-03T01:41:47.323Z,50.33
2018-03-03T01:44:14.777Z,43.27
2018-03-03T01:46:42.460Z,46.80
2018-03-03T01:49:09.921Z,47.17
2018-03-03T01:51:42.300Z,44.87
2018-03-03T01:54:09.768Z,44.30
2018-03-03T01:56:37.213Z,42.40
2018-03-03T01:59:04.681Z,47.37
2018-03-03T02:01:32.146Z,47.17
2018-03-03T02:03:59.743Z,46.37
2018-03-03T02:06:27.201Z,45.10
2018-03-03T02:08:54.681Z,45.20
2018-03-03T02:11:22.148Z,47.33
2018-03-03T02:13:49.652Z,48.73
2018-03-03T02:16:17.490Z,44.93
2018-03-03T02:18:44.945Z,45.23
2018-03-03T02:21:12.397Z,44.90
2018-03-03T02:23:39.884Z,45.07
2018-03-03T02:26:07.725Z,46.60
2018-03-03T02:28:35.225Z,48.37
2018-03-03T02:31:02.678Z,46.10
2018-03-03T02:33:30.131Z,45.63
2018-03-03T02:35:57.625Z,44.80
2018-03-03T02:38:25.114Z,44.63
2018-03-03T02:40:52.806Z,45.07
2018-03-03T02:43:20.258Z,48.10
2018-03-03T02:45:47.719Z,46.07
2018-03-03T02:48:15.202Z,47.37
2018-03-03T02:50:42.679Z,46.43
2018-03-03T02:53:10.344Z,46.97
2018-03-03T02:55:37.793Z,48.23
2018-03-03T02:58:05.245Z,42.17
2018-03-03T03:00:32.876Z,46.80
2018-03-03T03:03:00.409Z,43.63
2018-03-03T03:05:27.903Z,47.80
2018-03-03T03:07:55.373Z,46.87
2018-03-03T03:10:22.841Z,46.63
2018-03-03T03:12:51.326Z,44.07
2018-03-03T03:15:18.793Z,46.93
2018-03-03T03:17:46.688Z,46.53
2018-03-03T03:20:14.137Z,43.37
2018-03-03T03:22:41.589Z,44.20
2018-03-03T03:25:09.066Z,43.40
2018-03-03T03:27:36.522Z,46.77
2018-03-03T03:30:04.004Z,44.10
2018-03-03T03:32:31.462Z,43.67
2018-03-03T03:34:58.924Z,45.27
2018-03-03T03:37:26.423Z,47.63
2018-03-03T03:39:53.873Z,43.10
2018-03-03T03:42:21.593Z,45.40
2018-03-03T03:44:49.057Z,44.53
2018-03-03T03:47:16.998Z,44.20
2018-03-03T03:49:44.490Z,43.23
2018-03-03T03:52:11.943Z,48.17
2018-03-03T03:54:39.749Z,45.70
2018-03-03T03:57:07.201Z,43.33
2018-03-03T03:59:34.806Z,45.93
2018-03-03T04:02:02.279Z,47.03
2018-03-03T04:04:29.749Z,45.80
2018-03-03T04:06:57.237Z,46.33
2018-03-03T04:09:24.689Z,46.60
2018-03-03T04:11:52.141Z,46.23
2018-03-03T04:14:19.609Z,47.17
2018-03-03T04:16:47.062Z,47.40
2018-03-03T04:19:14.795Z,50.43
2018-03-03T04:21:42.262Z,46.00
2018-03-03T04:24:09.707Z,47.17
2018-03-03T04:26:37.177Z,48.73
2018-03-03T04:29:04.644Z,45.10
2018-03-03T04:31:32.315Z,46.73
2018-03-03T04:34:00.038Z,44.60
2018-03-03T04:36:27.506Z,46.00
2018-03-03T04:38:54.986Z,48.40
2018-03-03T04:41:22.443Z,47.57
2018-03-03T04:43:50.078Z,49.37
2018-03-03T04:46:17.745Z,46.03
2018-03-03T04:48:45.196Z,47.30
2018-03-03T04:51:12.666Z,48.70
2018-03-03T04:53:40.126Z,48.43
2018-03-03T04:56:07.633Z,44.30
2018-03-03T05:01:57.145Z,49.03
2018-03-03T05:04:30.254Z,49.17
2018-03-03T05:09:59.626Z,49.50
2018-03-03T05:12:27.118Z,51.63
2018-03-03T05:14:56.137Z,48.57
2018-03-03T05:20:44.517Z,48.47
2018-03-03T05:23:17.716Z,48.93
2018-03-03T05:28:51.989Z,49.17
2018-03-03T05:34:27.358Z,45.83
2018-03-03T05:37:00.437Z,50.83
2018-03-03T05:42:34.368Z,49.10
2018-03-03T05:45:07.660Z,53.93
2018-03-03T05:47:37.549Z,48.50
2018-03-03T05:50:10.881Z,50.67
2018-03-03T05:55:46.901Z,52.20
2018-03-03T05:58:19.888Z,51.77
2018-03-03T06:03:59.537Z,53.17
2018-03-03T06:06:30.065Z,48.30
2018-03-03T06:11:57.285Z,50.97
2018-03-03T06:14:24.736Z,50.00
2018-03-03T06:16:52.230Z,53.40
2018-03-03T06:19:19.694Z,50.40
2018-03-03T06:21:47.209Z,50.40
2018-03-03T06:24:14.681Z,51.13
2018-03-03T06:26:42.133Z,49.70
2018-03-03T06:29:09.757Z,51.13
2018-03-03T06:31:37.220Z,50.10
2018-03-03T06:34:04.669Z,50.20
2018-03-03T06:36:32.168Z,48.10
2018-03-03T06:38:59.616Z,51.90
2018-03-03T06:41:27.525Z,50.47
2018-03-03T06:43:55.000Z,49.40
2018-03-03T06:46:22.454Z,53.43
2018-03-03T06:48:49.926Z,50.77
2018-03-03T06:51:17.421Z,50.67
2018-03-03T06:53:45.179Z,56.40
2018-03-03T06:56:13.026Z,52.60
2018-03-03T06:58:40.479Z,51.40
2018-03-03T07:01:07.948Z,52.20
2018-03-03T07:03:35.417Z,54.30
2018-03-03T07:06:03.032Z,51.07
2018-03-03T07:08:30.488Z,54.83
2018-03-03T07:10:57.963Z,54.00
2018-03-03T07:13:25.438Z,51.80
2018-03-03T07:15:52.889Z,51.93
2018-03-03T07:18:20.361Z,50.77
2018-03-03T07:20:47.816Z,52.23
2018-03-03T07:23:15.264Z,50.37
2018-03-03T07:25:42.737Z,51.37
2018-03-03T07:28:10.237Z,46.70
2018-03-03T07:30:37.968Z,52.13
2018-03-03T07:33:05.432Z,49.37
2018-03-03T07:35:33.174Z,55.13
2018-03-03T07:38:00.701Z,51.40
2018-03-03T07:40:28.178Z,51.13
2018-03-03T07:42:56.441Z,53.23
2018-03-03T07:45:23.909Z,50.70
2018-03-03T07:47:51.364Z,50.50
2018-03-03T07:50:18.833Z,53.13
2018-03-03T07:52:46.321Z,53.37
2018-03-03T07:55:13.806Z,50.73
2018-03-03T07:57:41.262Z,49.50
2018-03-03T08:00:08.757Z,49.00
2018-03-03T08:02:36.274Z,54.10
2018-03-03T08:05:03.705Z,50.33
2018-03-03T08:07:31.205Z,49.60
2018-03-03T08:09:58.677Z,51.37
2018-03-03T08:12:26.125Z,49.77
2018-03-03T08:14:53.594Z,51.00
2018-03-03T08:41:36.332Z,51.17
2018-03-03T08:44:03.809Z,49.10
2018-03-03T08:46:31.285Z,49.03
2018-03-03T08:48:58.769Z,47.47
2018-03-03T08:51:26.256Z,49.20
2018-03-03T08:53:53.949Z,49.37
2018-03-03T08:56:21.425Z,51.27
2018-03-03T08:58:48.892Z,51.30
2018-03-03T09:01:16.504Z,49.07
2018-03-03T09:03:43.981Z,48.40
2018-03-03T09:06:11.460Z,49.90
2018-03-03T09:08:38.913Z,50.87
2018-03-03T09:11:06.368Z,48.67
2018-03-03T09:13:33.841Z,49.67
2018-03-03T09:16:01.318Z,50.47
2018-03-03T09:18:29.061Z,48.60
2018-03-03T09:20:56.516Z,51.30
2018-03-03T09:23:23.970Z,50.23
2018-03-03T09:25:51.460Z,46.73
2018-03-03T09:28:18.914Z,48.93
2018-03-03T09:30:46.443Z,51.43
2018-03-03T09:35:02.157Z,48.77
2018-03-03T09:37:29.641Z,45.60
2018-03-03T09:39:57.560Z,49.00
2018-03-03T09:42:25.034Z,48.37
2018-03-03T09:44:52.505Z,47.60
2018-03-03T09:47:19.977Z,48.93
2018-03-03T09:50:32.245Z,48.70
2018-03-03T09:52:59.738Z,47.20
2018-03-03T09:55:27.193Z,48.50
2018-03-03T09:57:54.645Z,47.20
2018-03-03T10:00:22.113Z,48.90
2018-03-03T10:02:49.558Z,48.10
2018-03-03T10:05:17.217Z,52.10
2018-03-03T10:07:44.669Z,49.63
2018-03-03T10:10:12.117Z,47.53
2018-03-03T10:12:39.588Z,48.87
2018-03-03T10:15:07.069Z,49.80
2018-03-03T10:17:34.765Z,46.27
2018-03-03T10:20:02.217Z,46.60
2018-03-03T10:22:29.665Z,49.23
2018-03-03T10:24:57.149Z,48.73
2018-03-03T10:27:24.601Z,46.60
2018-03-03T10:29:52.125Z,48.60
2018-03-03T10:32:19.570Z,51.10
2018-03-03T10:34:47.019Z,48.57
2018-03-03T10:37:14.549Z,49.13
2018-03-03T10:39:42.023Z,46.10
2018-03-03T10:42:09.669Z,48.93
2018-03-03T10:44:37.134Z,51.13
2018-03-03T10:47:04.581Z,47.20
2018-03-03T10:49:32.052Z,52.27
2018-03-03T10:51:59.504Z,47.83
2018-03-03T10:54:27.002Z,48.87
2018-03-03T10:56:54.477Z,52.17
2018-03-03T10:59:21.952Z,50.43
2018-03-03T11:01:49.426Z,52.50
2018-03-03T11:04:16.890Z,52.27
2018-03-03T11:06:44.669Z,48.73
2018-03-03T11:09:12.129Z,51.80
2018-03-03T11:11:39.581Z,48.37
2018-03-03T11:14:07.073Z,48.70
2018-03-03T11:16:34.524Z,51.60
2018-03-03T11:19:02.138Z,50.30
2018-03-03T11:21:29.594Z,47.10
2018-03-03T11:23:57.044Z,46.23
2018-03-03T11:26:24.546Z,48.83
2018-03-03T11:28:51.993Z,47.33
2018-03-03T11:31:19.862Z,49.50
2018-03-03T11:33:47.318Z,51.80
2018-03-03T11:36:14.764Z,52.93
2018-03-03T11:38:42.245Z,53.53
2018-03-03T11:41:09.698Z,45.47
2018-03-03T11:43:37.168Z,52.13
2018-03-03T11:46:04.621Z,49.63
2018-03-03T11:48:32.072Z,49.50
2018-03-03T11:50:59.544Z,50.67
2018-03-03T11:53:26.994Z,52.93
2018-03-03T11:55:54.756Z,51.57
2018-03-03T11:58:22.210Z,51.97
2018-03-03T12:00:49.773Z,51.60
2018-03-03T12:03:17.257Z,51.50
2018-03-03T12:05:44.713Z,52.10
2018-03-03T12:08:12.205Z,54.03
2018-03-03T12:10:39.653Z,49.17
2018-03-03T12:13:07.113Z,51.17
2018-03-03T12:15:34.589Z,50.53
2018-03-03T12:18:02.041Z,51.73
2018-03-03T12:20:29.769Z,51.17
2018-03-03T12:22:57.234Z,46.40
2018-03-03T12:25:24.682Z,52.07
2018-03-03T12:27:52.152Z,48.90
2018-03-03T12:30:19.609Z,47.83
2018-03-03T12:32:47.313Z,48.63
2018-03-03T12:35:14.767Z,48.37
2018-03-03T12:37:42.217Z,51.10
2018-03-03T12:40:09.705Z,41.17
2018-03-03T12:42:37.153Z,47.20
2018-03-03T12:45:04.745Z,48.10
2018-03-03T12:47:32.210Z,45.57
2018-03-03T12:49:59.677Z,44.10
2018-03-03T12:52:27.160Z,44.40
2018-03-03T12:54:54.615Z,44.00
2018-03-03T12:57:22.311Z,45.07
2018-03-03T12:59:49.783Z,47.77
2018-03-03T13:02:17.231Z,45.67
2018-03-03T13:04:44.705Z,44.17
2018-03-03T13:07:12.153Z,49.30
2018-03-03T13:09:39.622Z,44.53
2018-03-03T13:12:07.066Z,41.27
2018-03-03T13:14:34.522Z,41.70
2018-03-03T13:17:01.985Z,38.67
2018-03-03T13:19:29.449Z,38.60
2018-03-03T13:21:57.230Z,39.73
2018-03-03T13:24:24.673Z,43.73
2018-03-03T13:26:52.125Z,40.20
2018-03-03T13:29:19.589Z,37.80
2018-03-03T13:31:47.063Z,38.17
2018-03-03T13:34:14.789Z,44.00
2018-03-03T13:36:42.233Z,42.73
2018-03-03T13:39:09.700Z,41.20
2018-03-03T13:41:37.161Z,44.67
2018-03-03T13:44:04.625Z,42.10
2018-03-03T13:46:32.114Z,38.30
2018-03-03T13:48:59.576Z,40.67
2018-03-03T13:51:27.020Z,42.27
2018-03-03T13:53:54.493Z,43.00
2018-03-03T13:56:21.933Z,40.47
2018-03-03T13:58:49.405Z,42.43
2018-03-03T14:01:16.857Z,44.87
2018-03-03T14:03:44.332Z,45.40
2018-03-03T14:06:11.805Z,41.87
2018-03-03T14:08:39.249Z,44.00
2018-03-03T14:11:06.877Z,42.87
2018-03-03T14:13:34.317Z,41.37
2018-03-03T14:16:01.764Z,43.97
2018-03-03T14:18:29.228Z,41.60
2018-03-03T14:20:56.677Z,46.27
2018-03-03T14:23:24.155Z,41.73
2018-03-03T14:25:51.666Z,47.20
2018-03-03T14:28:19.206Z,46.30
2018-03-03T14:30:46.674Z,42.97
2018-03-03T14:33:14.117Z,43.47
2018-03-03T14:35:41.815Z,44.87
2018-03-03T14:38:09.262Z,45.37
2018-03-03T14:40:37.632Z,44.67
2018-03-03T14:43:05.098Z,47.60
2018-03-03T14:45:32.558Z,44.97
2018-03-03T14:48:00.334Z,43.00
2018-03-03T14:50:27.795Z,44.00
2018-03-03T14:52:55.237Z,45.10
2018-03-03T14:55:22.701Z,43.00
2018-03-03T14:57:59.493Z,45.87
2018-03-03T15:00:26.977Z,45.03
2018-03-03T15:02:54.423Z,43.77
2018-03-03T15:05:21.894Z,44.17
2018-03-03T15:07:49.366Z,42.10
2018-03-03T15:10:16.853Z,45.60
2018-03-03T15:12:44.525Z,45.90
2018-03-03T15:15:11.973Z,41.97
2018-03-03T15:17:39.426Z,45.90
2018-03-03T15:20:06.923Z,41.37
2018-03-03T15:22:34.369Z,43.90
2018-03-03T15:25:01.857Z,44.40
2018-03-03T15:27:29.321Z,44.60
2018-03-03T15:29:56.777Z,43.63
2018-03-03T15:32:24.242Z,46.10
2018-03-03T15:34:51.691Z,42.60
2018-03-03T15:37:19.197Z,45.37
2018-03-03T15:39:46.732Z,44.80
2018-03-03T15:42:14.179Z,44.80
2018-03-03T15:44:41.677Z,45.67
2018-03-03T15:47:09.230Z,45.53
2018-03-03T15:49:36.706Z,43.20
2018-03-03T15:52:04.152Z,43.53
2018-03-03T15:54:31.597Z,43.97
2018-03-03T15:56:59.065Z,44.03
2018-03-03T15:59:26.526Z,44.37
2018-03-03T16:01:54.093Z,43.77
2018-03-03T16:04:21.541Z,44.03
2018-03-03T16:06:49.020Z,41.10
2018-03-03T16:09:16.499Z,43.07
2018-03-03T16:11:43.941Z,44.80
2018-03-03T16:14:11.658Z,47.07
2018-03-03T16:16:39.120Z,43.37
2018-03-03T16:19:06.631Z,41.80
2018-03-03T16:21:34.081Z,42.57
2018-03-03T16:24:01.530Z,42.87
2018-03-03T16:26:29.217Z,44.57
2018-03-03T16:28:56.665Z,44.20
2018-03-03T16:31:24.113Z,42.53
2018-03-03T16:33:51.585Z,43.97
2018-03-03T16:36:19.032Z,46.07
2018-03-03T16:38:46.533Z,46.43
2018-03-03T16:41:13.980Z,43.43
2018-03-03T16:43:41.459Z,45.10
2018-03-03T16:46:08.930Z,42.40
2018-03-03T16:48:36.374Z,43.10
2018-03-03T16:51:04.032Z,41.63
2018-03-03T16:53:31.476Z,42.57
2018-03-03T16:55:58.922Z,42.03
2018-03-03T16:58:26.389Z,39.80
2018-03-03T17:00:53.838Z,41.30
2018-03-03T17:03:21.341Z,40.00
2018-03-03T17:05:48.785Z,41.37
2018-03-03T17:08:16.225Z,41.40
2018-03-03T17:10:43.716Z,41.10
2018-03-03T17:13:11.181Z,39.13
2018-03-03T17:15:38.805Z,39.87
2018-03-03T17:18:06.259Z,39.60
2018-03-03T17:20:33.717Z,39.00
2018-03-03T17:23:01.189Z,41.60
2018-03-03T17:25:28.647Z,39.10
2018-03-03T17:27:56.365Z,41.37
2018-03-03T17:30:24.197Z,37.50
2018-03-03T17:32:51.652Z,40.87
2018-03-03T17:35:19.118Z,39.60
2018-03-03T17:37:46.560Z,40.23
2018-03-03T17:40:14.041Z,38.47
2018-03-03T17:42:41.486Z,40.93
2018-03-03T17:45:08.938Z,40.57
2018-03-03T17:47:36.406Z,40.60
2018-03-03T17:50:03.858Z,38.53
2018-03-03T17:52:31.390Z,37.20
2018-03-03T17:54:58.836Z,41.27
2018-03-03T17:57:26.281Z,39.47
2018-03-03T17:59:53.819Z,41.47
2018-03-03T18:02:21.273Z,41.33
2018-03-03T18:04:48.751Z,40.93
2018-03-03T18:07:16.219Z,42.57
2018-03-03T18:09:43.665Z,41.47
2018-03-03T18:12:11.137Z,42.60
2018-03-03T18:14:38.577Z,45.07
2018-03-03T18:17:06.053Z,40.40
2018-03-03T18:19:34.330Z,43.90
2018-03-03T18:22:01.781Z,43.40
2018-03-03T18:24:36.045Z,43.03
2018-03-03T18:27:03.489Z,42.93
2018-03-03T18:29:31.001Z,43.13
2018-03-03T18:31:58.456Z,42.37
2018-03-03T18:34:25.909Z,41.20
2018-03-03T18:36:53.389Z,42.63
2018-03-03T18:39:20.899Z,46.63
2018-03-03T18:41:48.534Z,45.80
2018-03-03T18:44:15.979Z,42.17
2018-03-03T18:46:43.430Z,44.70
2018-03-03T18:49:10.909Z,43.17
2018-03-03T18:51:38.373Z,45.53
2018-03-03T18:54:05.994Z,44.80
2018-03-03T18:56:33.450Z,44.93
2018-03-03T18:59:00.891Z,42.63
2018-03-03T19:01:28.362Z,44.77
2018-03-03T19:03:57.485Z,43.90
2018-03-03T19:06:25.487Z,43.60
2018-03-03T19:08:54.764Z,46.93
2018-03-03T19:11:23.440Z,43.60
2018-03-03T19:13:50.911Z,43.37
2018-03-03T19:16:18.368Z,46.30
2018-03-03T19:18:46.262Z,44.03
2018-03-03T19:21:13.715Z,44.13
2018-03-03T19:23:41.162Z,43.70
2018-03-03T19:26:08.641Z,45.00
2018-03-03T19:28:36.090Z,45.83
2018-03-03T19:31:03.792Z,43.70
2018-03-03T19:33:31.249Z,48.80
2018-03-03T19:35:58.718Z,45.80
2018-03-03T19:38:27.034Z,47.47
2018-03-03T19:40:54.485Z,46.90
2018-03-03T19:43:21.976Z,47.57
2018-03-03T19:45:49.514Z,47.30
2018-03-03T19:48:16.962Z,45.17
2018-03-03T19:50:44.442Z,48.67
2018-03-03T19:53:11.889Z,45.90
2018-03-03T19:55:39.457Z,49.03
2018-03-03T19:58:06.921Z,45.80
2018-03-03T20:00:34.368Z,46.70
2018-03-03T20:03:01.850Z,46.60
2018-03-03T20:05:29.309Z,48.27
2018-03-03T20:07:56.810Z,46.63
2018-03-03T20:10:24.285Z,49.60
2018-03-03T20:12:51.764Z,52.13
2018-03-03T20:15:19.264Z,53.40
2018-03-03T20:17:46.734Z,47.87
2018-03-03T20:20:14.290Z,51.47
2018-03-03T20:22:41.776Z,46.87
2018-03-03T20:25:09.268Z,49.13
2018-03-03T20:27:36.754Z,51.07
2018-03-03T20:30:04.209Z,48.40
2018-03-03T20:32:31.852Z,49.30
2018-03-03T20:34:59.342Z,52.07
2018-03-03T20:37:26.814Z,48.83
2018-03-03T20:39:54.310Z,48.10
2018-03-03T20:42:21.785Z,53.37
2018-03-03T20:44:49.279Z,51.27
2018-03-03T20:47:16.744Z,56.80
2018-03-03T20:49:44.211Z,52.63
2018-03-03T20:52:11.707Z,51.20
2018-03-03T20:54:39.174Z,52.83
2018-03-03T20:57:06.756Z,48.90
2018-03-03T20:59:34.211Z,53.17
2018-03-03T21:02:01.669Z,51.20
2018-03-03T21:04:29.146Z,54.50
2018-03-03T21:06:56.623Z,52.37
2018-03-03T21:09:24.118Z,53.97
2018-03-03T21:11:53.533Z,54.17
2018-03-03T21:14:20.994Z,52.47
2018-03-03T21:16:48.502Z,54.00
2018-03-03T21:19:16.604Z,56.00
2018-03-03T21:21:44.373Z,58.87
2018-03-03T21:24:11.896Z,56.30
2018-03-03T21:26:39.379Z,56.67
2018-03-03T21:29:06.921Z,52.00
2018-03-03T21:31:34.338Z,52.10
2018-03-03T21:34:02.098Z,55.50
2018-03-03T21:36:29.613Z,53.50
2018-03-03T21:38:57.063Z,56.20
2018-03-03T21:41:24.540Z,55.50
2018-03-03T21:43:51.986Z,53.50
2018-03-03T21:46:19.491Z,53.60
2018-03-03T21:48:46.970Z,53.57
2018-03-03T21:51:14.430Z,55.07
2018-03-03T21:53:41.909Z,55.47
2018-03-03T21:56:09.358Z,52.50
2018-03-03T21:58:37.133Z,54.93
2018-03-03T22:01:04.611Z,52.63
2018-03-03T22:03:32.061Z,54.70
2018-03-03T22:05:59.561Z,54.30
2018-03-03T22:08:27.053Z,55.47
2018-03-03T22:10:54.641Z,52.97
2018-03-03T22:13:22.090Z,55.73
2018-03-03T22:15:49.658Z,57.93
2018-03-03T22:18:17.128Z,55.47
2018-03-03T22:20:44.574Z,57.87
2018-03-03T22:23:12.046Z,56.40
2018-03-03T22:25:39.550Z,53.90
2018-03-03T22:28:07.010Z,56.43
2018-03-03T22:30:34.486Z,56.07
2018-03-03T22:33:01.937Z,54.23
2018-03-03T22:35:29.386Z,60.90
2018-03-03T22:37:56.882Z,58.07
2018-03-03T22:40:24.328Z,61.67
2018-03-03T22:42:51.777Z,59.37
2018-03-03T22:45:19.566Z,60.20
2018-03-03T22:47:47.018Z,58.00
2018-03-03T22:50:14.471Z,55.87
2018-03-03T22:52:41.992Z,57.90
2018-03-03T22:55:09.447Z,59.10
2018-03-03T22:57:36.902Z,63.47
2018-03-03T23:00:04.734Z,57.80
2018-03-03T23:02:32.197Z,55.27
2018-03-03T23:04:59.645Z,54.70
2018-03-03T23:07:27.118Z,59.63
2018-03-03T23:09:54.576Z,55.67
2018-03-03T23:12:22.141Z,54.07
2018-03-03T23:14:49.596Z,57.60
2018-03-03T23:17:17.054Z,54.00
2018-03-03T23:19:44.525Z,58.00
2018-03-03T23:22:12.006Z,58.83
2018-03-03T23:24:39.939Z,55.57
2018-03-03T23:27:07.385Z,58.27
2018-03-03T23:29:34.837Z,55.87
2018-03-03T23:32:02.329Z,57.67
2018-03-03T23:34:29.778Z,54.87
2018-03-03T23:36:57.261Z,55.70
2018-03-03T23:39:24.731Z,54.10
2018-03-03T23:41:52.185Z,54.83
2018-03-03T23:44:19.653Z,55.00
2018-03-03T23:46:47.105Z,54.77
2018-03-03T23:49:14.603Z,57.63
2018-03-03T23:51:42.050Z,52.80
2018-03-03T23:54:09.503Z,59.73
2018-03-03T23:56:36.978Z,61.97
2018-03-03T23:59:04.453Z,59.73
